Aeroporto :
LOGIN :

Iscrizione | Disclaimer

   EN    FR    IT 

 










Sommario :    VFR   VFR Marginale   IFR   IFR Intensivo   IFR Molto Intensivo
Visibilità : 
Base nubi : 
>= 8 km
>= 3000ft
5 / 8 km
1000 / 3000 ft
1500m / 5 km
500 / 1000 ft
800 / 1500m
200 / 500 ft
< 800m
< 200 ft
Simboli :   Temporali  Nebbia  Neve Forte  Precipitazioni Forti  Vento > 20 kt
SIGMETs :   Varie  Temporali  Ghiacco  Turbolenza  Onda orograficha  Ceneri Vulcaniche






- Altitudine del aeroporto : 313 ft
- Codice IATA : LEH


LFOH - Le Havre Octeville

ULTIMO METAR :
  • 021130Z AUTO 33006KT 290V010 CAVOK 20/12 Q1020 NOSIG

METARs OBSOLETI :
  • 021100Z AUTO 29005KT 240V330 CAVOK 19/11 Q1020 NOSIG
  • 021030Z AUTO 29006KT 250V320 CAVOK 18/12 Q1020 NOSIG
  • 021000Z AUTO 24007KT 190V280 CAVOK 20/12 Q1020 NOSIG
  • 020930Z AUTO 21007KT 140V250 CAVOK 19/11 Q1020 BECMG 32010KT
  • 020900Z AUTO 21007KT 180V240 CAVOK 18/11 Q1021 BECMG 32010KT

TAF TAF LFOH
Valido dal 02 a 12 ore il 03 a 12 ore UTC


021100Z 0212/0312 30006KT CAVOK
ATIS : +33 2 35 54 64 93



MetMap, La meteo Aeronautica in un colpo d'occhio ! - Copyright ORBIFLY Dicembre 2007 - Disclaimer

ORBIFLY MET'MAP TEAM :

Programmazione e sviluppo : Alexandra Zaïnal
Concezione : Baudouin d'Aumeries
Supporto tecnico e logistico : Manuel Goepfert
Aiuto : Marc-Olivier Méhu
Aiuto per la traduzione : Arnaldo La Scala




FONTI E CREDITI :

   NOAA